createdAt,value
2022-10-11T00:10:30.349Z,100448.91
2022-10-11T00:13:09.071Z,100457.31
2022-10-11T00:26:12.479Z,100461.75
2022-10-11T00:41:55.750Z,100469.47
2022-10-11T00:44:33.915Z,100466.88
2022-10-11T00:57:40.729Z,100479.31
2022-10-11T01:00:19.620Z,100484.47
2022-10-11T01:13:24.451Z,100487.88
2022-10-11T01:26:43.977Z,100493.50
2022-10-11T01:29:35.458Z,100493.69
2022-10-11T01:42:39.430Z,100496.19
2022-10-11T01:45:18.926Z,100492.53
2022-10-11T01:48:04.468Z,100497.03
2022-10-11T01:50:48.267Z,100500.09
2022-10-11T01:53:29.655Z,100499.84
2022-10-11T01:56:31.840Z,100491.56
2022-10-11T01:59:19.957Z,100490.53
2022-10-11T02:02:50.862Z,100490.16
2022-10-11T02:05:31.754Z,100500.41
2022-10-11T02:08:34.411Z,100499.59
2022-10-11T02:11:23.240Z,100500.41
2022-10-11T02:14:11.145Z,100496.91
2022-10-11T02:16:58.306Z,100497.03
2022-10-11T02:19:38.865Z,100502.38
2022-10-11T02:22:28.966Z,100506.03
2022-10-11T02:25:09.957Z,100504.38
2022-10-11T02:27:48.852Z,100495.34
2022-10-11T02:30:26.440Z,100498.72
2022-10-11T02:33:06.018Z,100495.88
2022-10-11T02:35:47.800Z,100498.31
2022-10-11T02:38:28.815Z,100494.34
2022-10-11T02:41:15.483Z,100499.28
2022-10-11T02:44:00.799Z,100497.31
2022-10-11T02:46:40.438Z,100504.47
2022-10-11T02:59:42.328Z,100507.75
2022-10-11T03:02:21.165Z,100514.19
2022-10-11T03:04:59.286Z,100509.97
2022-10-11T03:07:37.526Z,100509.72
2022-10-11T03:10:15.934Z,100512.94
2022-10-11T03:12:53.958Z,100519.28
2022-10-11T03:15:32.413Z,100519.69
2022-10-11T03:28:34.990Z,100529.16
2022-10-11T03:31:13.876Z,100529.97
2022-10-11T03:33:52.020Z,100538.53
2022-10-11T03:36:30.415Z,100537.81
2022-10-11T03:39:08.830Z,100543.16
2022-10-11T03:41:46.634Z,100537.69
2022-10-11T03:44:24.705Z,100540.66
2022-10-11T03:47:03.211Z,100542.19
2022-10-11T03:49:43.632Z,100546.53
2022-10-11T04:02:46.696Z,100545.28
2022-10-11T04:05:24.386Z,100546.72
2022-10-11T04:08:02.656Z,100546.44
2022-10-11T04:10:41.013Z,100549.09
2022-10-11T04:13:19.018Z,100546.44
2022-10-11T04:15:57.319Z,100560.34
2022-10-11T04:18:35.359Z,100557.81
2022-10-11T04:21:13.537Z,100564.00
2022-10-11T04:23:51.754Z,100557.81
2022-10-11T04:26:30.363Z,100556.81
2022-10-11T04:29:08.385Z,100569.47
2022-10-11T04:31:46.349Z,100564.56
2022-10-11T04:34:24.776Z,100566.25
2022-10-11T04:47:27.537Z,100579.19
2022-10-11T04:50:06.481Z,100582.69
2022-10-11T04:52:44.352Z,100583.81
2022-10-11T04:55:22.799Z,100579.59
2022-10-11T05:08:25.838Z,100591.41
2022-10-11T05:11:06.919Z,100587.19
2022-10-11T05:13:46.028Z,100587.34
2022-10-11T05:16:24.939Z,100589.63
2022-10-11T05:19:02.028Z,100599.47
2022-10-11T05:21:40.287Z,100601.16
2022-10-11T05:24:18.431Z,100599.56
2022-10-11T05:26:59.808Z,100604.19
2022-10-11T05:29:41.191Z,100613.53
2022-10-11T05:32:19.425Z,100617.03
2022-10-11T05:34:57.868Z,100615.09
2022-10-11T05:37:35.776Z,100622.94
2022-10-11T05:40:14.152Z,100626.31
2022-10-11T05:42:52.224Z,100626.31
2022-10-11T05:45:32.862Z,100632.66
2022-10-11T05:48:10.563Z,100631.78
2022-10-11T05:50:48.494Z,100643.78
2022-10-11T05:53:26.833Z,100642.91
2022-10-11T05:56:05.410Z,100648.53
2022-10-11T05:58:42.994Z,100658.53
2022-10-11T06:01:26.232Z,100656.00
2022-10-11T06:04:04.913Z,100653.47
2022-10-11T06:06:42.432Z,100661.50
2022-10-11T06:09:20.738Z,100663.03
2022-10-11T06:11:58.817Z,100667.66
2022-10-11T06:14:50.809Z,100673.44
2022-10-11T06:17:42.438Z,100677.53
2022-10-11T06:20:34.405Z,100678.94
2022-10-11T06:23:41.275Z,100682.28
2022-10-11T06:26:36.838Z,100683.56
2022-10-11T06:29:31.724Z,100684.53
2022-10-11T06:32:35.841Z,100691.84
2022-10-11T06:35:08.154Z,100695.53
2022-10-11T06:37:59.778Z,100693.69
2022-10-11T06:41:16.377Z,100700.88
2022-10-11T06:44:14.260Z,100699.88
2022-10-11T06:47:09.019Z,100705.38
2022-10-11T06:50:06.147Z,100706.94
2022-10-11T06:53:16.104Z,100718.75
2022-10-11T06:56:10.677Z,100713.53
2022-10-11T06:59:03.763Z,100712.41
2022-10-11T07:02:00.781Z,100716.22
2022-10-11T07:04:52.368Z,100720.84
2022-10-11T07:07:47.563Z,100726.91
2022-10-11T07:10:48.145Z,100728.75
2022-10-11T07:13:50.219Z,100732.25
2022-10-11T07:16:54.112Z,100736.06
2022-10-11T07:19:49.429Z,100739.56
2022-10-11T07:22:41.657Z,100739.56
2022-10-11T07:25:36.172Z,100737.06
2022-10-11T07:28:31.279Z,100746.47
2022-10-11T07:31:26.525Z,100744.50
2022-10-11T07:34:27.433Z,100758.69
2022-10-11T07:37:23.139Z,100759.00
2022-10-11T07:40:15.152Z,100760.25
2022-10-11T07:43:07.408Z,100759.13
2022-10-11T07:46:04.197Z,100759.84
2022-10-11T07:48:58.983Z,100766.03
2022-10-11T07:51:53.633Z,100764.91
2022-10-11T07:54:57.781Z,100767.16
2022-10-11T07:57:49.605Z,100764.06
2022-10-11T08:00:44.127Z,100768.16
2022-10-11T08:03:39.977Z,100764.88
2022-10-11T08:06:51.090Z,100773.63
2022-10-11T08:09:54.746Z,100765.31
2022-10-11T08:12:49.768Z,100777.84
2022-10-11T08:15:51.134Z,100777.13
2022-10-11T08:18:46.727Z,100783.03
2022-10-11T08:21:41.980Z,100782.50
2022-10-11T08:24:38.529Z,100777.69
2022-10-11T08:27:31.023Z,100778.56
2022-10-11T08:40:55.609Z,100786.00
2022-10-11T08:44:01.071Z,100777.56
2022-10-11T08:47:23.502Z,100776.28
2022-10-11T08:49:51.393Z,100781.59
2022-10-11T08:52:27.792Z,100785.41
2022-10-11T08:55:06.012Z,100785.28
2022-10-11T08:57:35.842Z,100785.69
2022-10-11T09:00:11.134Z,100789.38
2022-10-11T09:03:06.940Z,100794.44
2022-10-11T09:06:09.485Z,100796.84
2022-10-11T09:08:46.046Z,100798.13
2022-10-11T09:11:25.152Z,100797.00
2022-10-11T09:14:30.694Z,100798.41
2022-10-11T09:17:08.905Z,100790.22
2022-10-11T09:19:44.323Z,100801.06
2022-10-11T09:22:39.976Z,100798.53
2022-10-11T09:25:23.808Z,100804.44
2022-10-11T09:28:02.859Z,100794.56
2022-10-11T09:30:30.377Z,100804.31
2022-10-11T09:33:32.696Z,100795.44
2022-10-11T09:36:00.428Z,100801.22
2022-10-11T09:39:06.808Z,100799.25
2022-10-11T09:41:41.662Z,100791.34
2022-10-11T09:44:11.668Z,100787.13
2022-10-11T09:46:41.298Z,100790.94
2022-10-11T09:49:17.587Z,100786.72
2022-10-11T09:51:52.834Z,100789.66
2022-10-11T09:54:27.211Z,100791.47
2022-10-11T09:56:54.089Z,100796.53
2022-10-11T09:59:29.458Z,100797.00
2022-10-11T10:02:19.222Z,100793.59
2022-10-11T10:05:18.280Z,100793.59
2022-10-11T10:08:05.345Z,100780.06
2022-10-11T10:10:38.947Z,100784.84
2022-10-11T10:13:36.947Z,100782.03
2022-10-11T10:16:05.517Z,100782.84
2022-10-11T10:18:43.044Z,100782.59
2022-10-11T10:21:13.181Z,100789.09
2022-10-11T10:23:40.134Z,100785.25
2022-10-11T10:26:17.343Z,100783.72
2022-10-11T10:29:00.013Z,100791.03
2022-10-11T10:31:44.414Z,100777.94
2022-10-11T10:34:31.796Z,100782.72
2022-10-11T10:37:04.401Z,100782.56
2022-10-11T10:39:42.955Z,100790.56
2022-10-11T10:42:15.997Z,100777.47
2022-10-11T10:44:43.240Z,100774.22
2022-10-11T10:47:15.708Z,100774.22
2022-10-11T10:49:54.445Z,100781.00
2022-10-11T10:52:31.717Z,100778.03
2022-10-11T10:55:22.879Z,100774.94
2022-10-11T10:58:33.209Z,100773.41
2022-10-11T11:01:03.649Z,100776.53
2022-10-11T11:03:36.353Z,100772.84
2022-10-11T11:06:08.071Z,100770.69
2022-10-11T11:08:47.085Z,100777.31
2022-10-11T11:11:26.756Z,100770.00
2022-10-11T11:14:19.767Z,100776.91
2022-10-11T11:17:12.814Z,100767.59
2022-10-11T11:20:02.539Z,100768.00
2022-10-11T11:22:57.126Z,100765.19
2022-10-11T11:25:47.339Z,100765.09
2022-10-11T11:28:23.533Z,100760.84
2022-10-11T11:31:14.999Z,100754.34
2022-10-11T11:34:06.796Z,100754.16
2022-10-11T11:36:46.535Z,100764.56
2022-10-11T11:39:27.926Z,100756.69
2022-10-11T11:42:12.181Z,100758.28
2022-10-11T11:44:51.373Z,100757.13
2022-10-11T11:47:36.011Z,100750.69
2022-10-11T11:50:23.018Z,100753.06
2022-10-11T11:53:16.824Z,100753.66
2022-10-11T11:55:49.320Z,100751.81
2022-10-11T11:58:44.302Z,100752.41
2022-10-11T12:01:26.516Z,100749.03
2022-10-11T12:04:03.514Z,100740.81
2022-10-11T12:06:43.724Z,100745.75
2022-10-11T12:09:21.537Z,100749.66
2022-10-11T12:12:00.731Z,100750.97
2022-10-11T12:14:33.393Z,100740.78
2022-10-11T12:17:22.884Z,100743.91
2022-10-11T12:20:01.631Z,100745.19
2022-10-11T12:22:28.275Z,100740.88
2022-10-11T12:25:18.412Z,100744.72
2022-10-11T12:27:46.739Z,100737.19
2022-10-11T12:30:44.417Z,100726.47
2022-10-11T12:33:24.524Z,100716.94
2022-10-11T12:35:51.300Z,100722.22
2022-10-11T12:38:35.395Z,100722.69
2022-10-11T12:41:13.246Z,100726.25
2022-10-11T12:43:49.038Z,100714.72
2022-10-11T12:46:33.987Z,100712.34
2022-10-11T12:49:12.770Z,100716.78
2022-10-11T12:51:56.018Z,100714.66
2022-10-11T12:54:42.354Z,100706.75
2022-10-11T12:57:12.511Z,100702.31
2022-10-11T12:59:44.294Z,100711.81
2022-10-11T13:02:39.302Z,100710.72
2022-10-11T13:05:16.981Z,100712.94
2022-10-11T13:07:43.924Z,100702.22
2022-10-11T13:10:15.780Z,100699.56
2022-10-11T13:12:43.589Z,100710.66
2022-10-11T13:15:15.936Z,100707.53
2022-10-11T13:17:43.291Z,100709.31
2022-10-11T13:20:20.778Z,100711.13
2022-10-11T13:22:50.321Z,100716.75
2022-10-11T13:25:23.098Z,100701.81
2022-10-11T13:27:50.983Z,100707.53
2022-10-11T13:30:28.513Z,100704.72
2022-10-11T13:32:55.495Z,100705.78
2022-10-11T13:35:36.947Z,100700.03
2022-10-11T13:38:05.139Z,100709.84
2022-10-11T13:40:32.009Z,100699.75
2022-10-11T13:43:00.262Z,100702.56
2022-10-11T13:45:30.651Z,100698.22
2022-10-11T13:47:57.497Z,100705.38
2022-10-11T13:50:33.447Z,100698.50
2022-10-11T13:53:21.352Z,100703.41
2022-10-11T13:55:53.701Z,100701.28
2022-10-11T13:58:26.265Z,100700.28
2022-10-11T14:00:55.531Z,100708.63
2022-10-11T14:03:22.528Z,100701.41
2022-10-11T14:05:59.430Z,100698.66
2022-10-11T14:08:58.493Z,100708.31
2022-10-11T14:11:36.341Z,100698.66
2022-10-11T14:14:31.001Z,100700.78
2022-10-11T14:17:05.069Z,100703.25
2022-10-11T14:19:32.891Z,100701.28
2022-10-11T14:21:59.528Z,100706.31
2022-10-11T14:24:26.233Z,100705.31
2022-10-11T14:26:54.722Z,100702.81
2022-10-11T14:29:33.162Z,100707.09
2022-10-11T14:32:05.786Z,100700.59
2022-10-11T14:34:32.940Z,100705.78
2022-10-11T14:37:01.335Z,100698.75
2022-10-11T14:39:30.348Z,100703.09
2022-10-11T14:41:57.503Z,100696.75
2022-10-11T14:44:24.376Z,100700.41
2022-10-11T14:46:54.595Z,100696.06
2022-10-11T14:49:26.796Z,100705.13
2022-10-11T14:51:57.191Z,100703.41
2022-10-11T14:54:25.362Z,100699.75
2022-10-11T14:56:53.446Z,100701.72
2022-10-11T14:59:27.488Z,100707.09
2022-10-11T15:01:54.553Z,100695.53
2022-10-11T15:04:21.965Z,100693.00
2022-10-11T15:06:49.249Z,100686.94
2022-10-11T15:09:17.115Z,100689.94
2022-10-11T15:11:44.191Z,100693.63
2022-10-11T15:14:11.750Z,100689.22
2022-10-11T15:16:40.332Z,100693.75
2022-10-11T15:19:10.118Z,100684.88
2022-10-11T15:21:37.191Z,100686.88
2022-10-11T15:24:04.008Z,100690.56
2022-10-11T15:26:30.741Z,100690.69
2022-10-11T15:28:57.822Z,100692.69
2022-10-11T15:31:24.545Z,100693.69
2022-10-11T15:33:51.747Z,100698.22
2022-10-11T15:36:21.817Z,100694.84
2022-10-11T15:38:49.007Z,100691.31
2022-10-11T15:41:17.401Z,100690.44
2022-10-11T15:43:45.564Z,100688.91
2022-10-11T15:46:14.870Z,100687.25
2022-10-11T15:48:41.544Z,100687.69
2022-10-11T15:51:08.373Z,100689.53
2022-10-11T15:53:35.211Z,100702.78
2022-10-11T15:56:04.807Z,100688.00
2022-10-11T15:58:37.083Z,100687.31
2022-10-11T16:01:06.600Z,100687.59
2022-10-11T16:03:34.222Z,100686.78
2022-10-11T16:06:05.167Z,100686.91
2022-10-11T16:08:34.590Z,100679.88
2022-10-11T16:11:01.366Z,100680.31
2022-10-11T16:13:28.032Z,100684.47
2022-10-11T16:15:55.122Z,100689.94
2022-10-11T16:18:22.432Z,100682.22
2022-10-11T16:20:51.674Z,100682.22
2022-10-11T16:23:19.980Z,100684.81
2022-10-11T16:25:55.960Z,100679.75
2022-10-11T16:28:22.839Z,100692.59
2022-10-11T16:30:49.533Z,100686.00
2022-10-11T16:33:16.338Z,100685.47
2022-10-11T16:35:43.392Z,100688.28
2022-10-11T16:38:10.375Z,100683.19
2022-10-11T16:40:38.625Z,100687.28
2022-10-11T16:43:07.966Z,100689.25
2022-10-11T16:45:35.352Z,100687.69
2022-10-11T16:48:02.087Z,100681.66
2022-10-11T16:50:29.094Z,100694.16
2022-10-11T16:52:56.386Z,100688.28
2022-10-11T16:55:23.508Z,100688.88
2022-10-11T16:57:51.870Z,100689.84
2022-10-11T17:00:18.626Z,100692.41
2022-10-11T17:02:45.417Z,100688.19
2022-10-11T17:05:13.741Z,100692.13
2022-10-11T17:07:40.792Z,100695.81
2022-10-11T17:10:07.938Z,100693.25
2022-10-11T17:12:37.118Z,100697.66
2022-10-11T17:15:04.857Z,100696.38
2022-10-11T17:17:31.584Z,100698.38
2022-10-11T17:19:58.333Z,100699.06
2022-10-11T17:22:28.426Z,100698.66
2022-10-11T17:24:55.302Z,100702.91
2022-10-11T17:27:22.224Z,100705.72
2022-10-11T17:29:48.925Z,100707.69
2022-10-11T17:32:15.665Z,100707.44
2022-10-11T17:34:42.533Z,100706.75
2022-10-11T17:37:10.300Z,100697.00
2022-10-11T17:39:36.984Z,100695.34
2022-10-11T17:42:07.379Z,100697.31
2022-10-11T17:44:35.146Z,100693.94
2022-10-11T17:47:02.895Z,100690.81
2022-10-11T17:49:30.267Z,100702.81
2022-10-11T17:51:57.122Z,100695.63
2022-10-11T17:54:24.351Z,100694.94
2022-10-11T17:56:50.987Z,100699.56
2022-10-11T17:59:21.256Z,100695.63
2022-10-11T18:01:49.136Z,100691.56
2022-10-11T18:04:16.886Z,100687.63
2022-10-11T18:06:45.043Z,100695.34
2022-10-11T18:09:13.784Z,100692.25
2022-10-11T18:11:40.462Z,100696.22
2022-10-11T18:14:07.290Z,100700.47
2022-10-11T18:16:37.066Z,100699.47
2022-10-11T18:19:05.850Z,100699.16
2022-10-11T18:21:34.684Z,100697.63
2022-10-11T18:24:05.142Z,100697.91
2022-10-11T18:26:31.872Z,100693.28
2022-10-11T18:28:59.015Z,100691.31
2022-10-11T18:31:29.898Z,100696.94
2022-10-11T18:33:56.748Z,100695.53
2022-10-11T18:36:26.869Z,100695.66
2022-10-11T18:38:56.394Z,100703.84
2022-10-11T18:41:24.993Z,100712.81
2022-10-11T18:43:53.987Z,100695.09
2022-10-11T18:46:21.511Z,100705.50
2022-10-11T18:48:50.222Z,100707.47
2022-10-11T18:51:19.673Z,100707.22
2022-10-11T18:53:47.363Z,100707.22
2022-10-11T18:56:15.828Z,100701.28
2022-10-11T18:58:44.215Z,100705.53
2022-10-11T19:01:26.092Z,100710.97
2022-10-11T19:03:56.458Z,100708.31
2022-10-11T19:06:26.810Z,100718.91
2022-10-11T19:08:56.346Z,100711.38
2022-10-11T19:11:25.355Z,100711.38
2022-10-11T19:14:10.089Z,100706.03
2022-10-11T19:16:39.059Z,100713.91
2022-10-11T19:19:06.489Z,100704.34
2022-10-11T19:21:33.661Z,100706.19
2022-10-11T19:24:00.702Z,100714.59
2022-10-11T19:26:31.735Z,100715.44
2022-10-11T19:29:04.603Z,100713.63
2022-10-11T19:31:32.281Z,100712.22
2022-10-11T19:33:59.041Z,100713.06
2022-10-11T19:36:26.198Z,100713.06
2022-10-11T19:38:56.859Z,100711.38
2022-10-11T19:41:24.775Z,100707.28
2022-10-11T19:43:52.086Z,100712.19
2022-10-11T19:46:37.902Z,100714.31
2022-10-11T19:49:08.606Z,100717.66
2022-10-11T19:51:35.273Z,100718.94
2022-10-11T19:54:04.515Z,100719.06
2022-10-11T19:56:32.317Z,100720.19
2022-10-11T19:58:59.405Z,100719.63
2022-10-11T20:01:28.443Z,100720.88
2022-10-11T20:03:59.176Z,100721.97
2022-10-11T20:06:27.857Z,100718.47
2022-10-11T20:09:16.793Z,100721.84
2022-10-11T20:11:41.968Z,100723.50
2022-10-11T20:14:09.271Z,100723.09
2022-10-11T20:16:36.094Z,100724.66
2022-10-11T20:19:03.876Z,100730.00
2022-10-11T20:21:30.743Z,100721.69
2022-10-11T20:24:02.805Z,100728.31
2022-10-11T20:26:30.572Z,100726.53
2022-10-11T20:29:02.223Z,100726.22
2022-10-11T20:31:52.577Z,100717.31
2022-10-11T20:34:30.446Z,100727.88
2022-10-11T20:36:57.247Z,100726.59
2022-10-11T20:39:24.452Z,100732.25
2022-10-11T20:41:51.173Z,100730.31
2022-10-11T20:44:18.057Z,100729.31
2022-10-11T20:46:44.828Z,100731.69
2022-10-11T20:49:12.384Z,100727.22
2022-10-11T20:51:41.873Z,100730.88
2022-10-11T20:54:09.000Z,100738.44
2022-10-11T20:56:37.315Z,100735.94
2022-10-11T20:59:05.261Z,100736.38
2022-10-11T21:01:34.667Z,100734.66
2022-10-11T21:04:02.135Z,100737.31
2022-10-11T21:06:30.455Z,100739.16
2022-10-11T21:08:58.933Z,100733.69
2022-10-11T21:11:31.070Z,100737.31
2022-10-11T21:14:03.243Z,100735.22
2022-10-11T21:16:30.119Z,100735.94
2022-10-11T21:18:58.024Z,100736.22
2022-10-11T21:21:25.279Z,100737.47
2022-10-11T21:23:59.691Z,100737.31
2022-10-11T21:26:27.430Z,100736.38
2022-10-11T21:28:54.442Z,100730.88
2022-10-11T21:31:22.300Z,100729.03
2022-10-11T21:33:49.223Z,100726.09
2022-10-11T21:36:21.061Z,100721.84
2022-10-11T21:38:48.590Z,100723.41
2022-10-11T21:41:25.820Z,100722.38
2022-10-11T21:43:53.106Z,100726.78
2022-10-11T21:46:41.732Z,100727.59
2022-10-11T21:49:12.562Z,100721.84
2022-10-11T21:51:39.338Z,100729.72
2022-10-11T21:54:06.049Z,100717.22
2022-10-11T21:56:32.831Z,100720.88
2022-10-11T21:58:59.567Z,100725.06
2022-10-11T22:01:26.355Z,100721.25
2022-10-11T22:03:53.804Z,100720.00
2022-10-11T22:06:21.384Z,100726.03
2022-10-11T22:08:49.835Z,100719.00
2022-10-11T22:11:16.730Z,100718.75
2022-10-11T22:13:43.385Z,100713.13
2022-10-11T22:16:11.789Z,100714.81
2022-10-11T22:18:38.999Z,100716.19
2022-10-11T22:21:07.960Z,100711.41
2022-10-11T22:23:34.956Z,100708.16
2022-10-11T22:26:12.108Z,100711.81
2022-10-11T22:28:39.099Z,100703.09
2022-10-11T22:31:07.135Z,100703.09
2022-10-11T22:33:34.317Z,100702.38
2022-10-11T22:36:02.524Z,100695.22
2022-10-11T22:38:29.321Z,100698.75
2022-10-11T22:40:58.373Z,100689.44
2022-10-11T22:43:25.080Z,100692.81
2022-10-11T22:45:51.777Z,100690.31
2022-10-11T22:48:18.501Z,100696.88
2022-10-11T22:50:45.238Z,100690.97
2022-10-11T22:53:13.410Z,100688.31
2022-10-11T22:55:40.427Z,100690.09
2022-10-11T22:58:07.415Z,100692.09
2022-10-11T23:00:34.177Z,100691.50
2022-10-11T23:03:00.893Z,100693.31
2022-10-11T23:05:27.687Z,100688.09
2022-10-11T23:07:54.635Z,100686.44
2022-10-11T23:10:21.266Z,100694.56
2022-10-11T23:12:48.031Z,100691.22
2022-10-11T23:15:15.292Z,100691.06
2022-10-11T23:17:42.370Z,100683.59
2022-10-11T23:20:09.738Z,100684.31
2022-10-11T23:22:36.665Z,100686.13
2022-10-11T23:25:03.962Z,100682.44
2022-10-11T23:27:30.654Z,100689.44
2022-10-11T23:29:57.914Z,100687.31
2022-10-11T23:32:24.802Z,100685.81
2022-10-11T23:34:51.848Z,100686.94
2022-10-11T23:37:18.566Z,100678.09
2022-10-11T23:39:45.508Z,100681.31
2022-10-11T23:42:12.303Z,100684.66
2022-10-11T23:44:39.003Z,100680.88
2022-10-11T23:47:05.803Z,100677.50
2022-10-11T23:49:32.528Z,100685.19
2022-10-11T23:52:00.729Z,100680.09
2022-10-11T23:54:27.431Z,100682.19
2022-10-11T23:56:54.719Z,100682.66
2022-10-11T23:59:21.544Z,100688.44
